createdAt,value
2019-05-13T00:00:54.525Z,81.66
2019-05-13T00:01:54.519Z,82.38
2019-05-13T00:02:54.559Z,82.89
2019-05-13T00:03:54.526Z,82.89
2019-05-13T00:04:54.478Z,82.69
2019-05-13T00:05:54.469Z,81.76
2019-05-13T00:06:57.661Z,82.17
2019-05-13T00:07:54.453Z,81.86
2019-05-13T00:08:54.475Z,82.21
2019-05-13T00:09:54.528Z,82.59
2019-05-13T00:10:54.421Z,81.90
2019-05-13T00:11:54.398Z,81.66
2019-05-13T00:12:54.386Z,81.66
2019-05-13T00:13:54.375Z,82.28
2019-05-13T00:14:54.391Z,81.56
2019-05-13T00:15:54.522Z,81.56
2019-05-13T00:16:54.340Z,81.49
2019-05-13T00:17:54.498Z,81.70
2019-05-13T00:18:54.318Z,81.70
2019-05-13T00:19:54.329Z,82.21
2019-05-13T00:20:54.387Z,82.31
2019-05-13T00:21:54.695Z,82.31
2019-05-13T00:22:54.271Z,82.93
2019-05-13T00:23:54.258Z,82.83
2019-05-13T00:24:54.338Z,82.93
2019-05-13T00:25:54.631Z,82.31
2019-05-13T00:26:54.228Z,82.21
2019-05-13T00:27:54.221Z,82.10
2019-05-13T00:28:54.205Z,82.21
2019-05-13T00:29:54.216Z,82.59
2019-05-13T00:30:54.410Z,82.21
2019-05-13T00:31:54.211Z,82.52
2019-05-13T00:32:54.644Z,82.42
2019-05-13T00:33:54.143Z,82.69
2019-05-13T00:34:54.161Z,82.69
2019-05-13T00:35:54.125Z,82.17
2019-05-13T00:37:07.632Z,81.76
2019-05-13T00:37:55.100Z,81.56
2019-05-13T00:38:54.094Z,81.56
2019-05-13T00:39:54.368Z,81.45
2019-05-13T00:40:54.686Z,81.66
2019-05-13T00:41:54.063Z,81.76
2019-05-13T00:42:54.595Z,81.62
2019-05-13T00:43:54.038Z,81.31
2019-05-13T00:44:54.060Z,81.31
2019-05-13T00:45:54.035Z,81.62
2019-05-13T00:46:54.005Z,81.00
2019-05-13T00:47:53.982Z,81.41
2019-05-13T00:48:54.196Z,81.27
2019-05-13T00:49:54.173Z,80.69
2019-05-13T00:50:54.567Z,80.28
2019-05-13T00:51:53.936Z,79.66
2019-05-13T00:52:53.926Z,80.18
2019-05-13T00:53:53.921Z,80.38
2019-05-13T00:54:53.903Z,80.18
2019-05-13T00:55:53.917Z,80.38
2019-05-13T00:56:54.811Z,80.86
2019-05-13T00:57:54.203Z,81.21
2019-05-13T00:58:54.232Z,80.79
2019-05-13T00:59:54.180Z,80.79
2019-05-13T01:00:54.601Z,81.10
2019-05-13T01:01:53.826Z,81.24
2019-05-13T01:02:53.812Z,81.35
2019-05-13T01:03:53.802Z,81.56
2019-05-13T01:04:53.790Z,81.35
2019-05-13T01:05:53.809Z,81.76
2019-05-13T01:06:53.930Z,81.56
2019-05-13T01:07:53.838Z,81.38
2019-05-13T01:08:53.744Z,81.38
2019-05-13T01:09:53.731Z,82.10
2019-05-13T01:10:53.798Z,81.70
2019-05-13T01:11:53.873Z,81.59
2019-05-13T01:12:54.003Z,81.38
2019-05-13T01:13:53.707Z,81.94
2019-05-13T01:14:53.673Z,81.84
2019-05-13T01:15:54.415Z,81.84
2019-05-13T01:16:54.399Z,83.07
2019-05-13T01:17:53.638Z,82.76
2019-05-13T01:18:53.901Z,81.63
2019-05-13T01:19:53.842Z,81.63
2019-05-13T01:20:53.975Z,81.73
2019-05-13T01:21:54.057Z,83.07
2019-05-13T01:22:54.154Z,82.29
2019-05-13T01:23:54.374Z,82.56
2019-05-13T01:24:54.168Z,82.90
2019-05-13T01:25:54.416Z,82.18
2019-05-13T01:26:54.155Z,82.18
2019-05-13T01:27:53.817Z,82.70
2019-05-13T01:28:53.670Z,82.50
2019-05-13T01:29:53.634Z,82.50
2019-05-13T01:30:54.091Z,82.70
2019-05-13T01:31:53.944Z,82.64
2019-05-13T01:32:53.990Z,83.01
2019-05-13T01:33:53.815Z,82.84
2019-05-13T01:34:53.992Z,82.84
2019-05-13T01:35:53.951Z,82.64
2019-05-13T01:36:53.698Z,83.15
2019-05-13T01:37:53.832Z,83.46
2019-05-13T01:38:54.078Z,82.95
2019-05-13T01:39:54.022Z,82.60
2019-05-13T01:40:53.970Z,82.84
2019-05-13T01:41:54.071Z,82.53
2019-05-13T01:42:54.204Z,83.15
2019-05-13T01:43:54.338Z,83.15
2019-05-13T01:44:53.890Z,82.64
2019-05-13T01:45:53.766Z,83.05
2019-05-13T01:46:53.749Z,82.64
2019-05-13T01:47:54.422Z,82.74
2019-05-13T01:48:54.344Z,83.25
2019-05-13T01:49:54.248Z,83.46
2019-05-13T01:50:53.472Z,83.98
2019-05-13T01:51:54.185Z,83.42
2019-05-13T01:52:53.382Z,82.74
2019-05-13T01:53:53.499Z,82.84
2019-05-13T01:54:54.342Z,83.05
2019-05-13T01:55:53.380Z,82.53
2019-05-13T01:56:53.660Z,82.32
2019-05-13T01:57:53.411Z,82.22
2019-05-13T01:58:54.089Z,82.95
2019-05-13T01:59:53.828Z,82.57
2019-05-13T02:00:55.229Z,83.09
2019-05-13T02:01:54.096Z,82.98
2019-05-13T02:02:54.444Z,83.91
2019-05-13T02:03:54.517Z,84.01
2019-05-13T02:04:53.318Z,83.40
2019-05-13T02:05:54.426Z,82.71
2019-05-13T02:06:54.332Z,83.54
2019-05-13T02:08:00.305Z,83.91
2019-05-13T02:08:54.619Z,84.22
2019-05-13T02:09:53.479Z,83.71
2019-05-13T02:10:54.337Z,84.01
2019-05-13T02:11:53.863Z,83.91
2019-05-13T02:12:53.555Z,84.12
2019-05-13T02:13:54.024Z,83.50
2019-05-13T02:14:53.473Z,83.54
2019-05-13T02:15:54.810Z,83.85
2019-05-13T02:16:53.530Z,84.06
2019-05-13T02:17:53.742Z,84.06
2019-05-13T02:18:53.655Z,83.85
2019-05-13T02:19:54.072Z,84.30
2019-05-13T02:20:55.341Z,84.72
2019-05-13T02:21:54.343Z,84.51
2019-05-13T02:22:53.644Z,84.88
2019-05-13T02:23:53.639Z,84.68
2019-05-13T02:24:53.541Z,84.78
2019-05-13T02:25:54.289Z,83.95
2019-05-13T02:26:54.294Z,84.30
2019-05-13T02:27:54.204Z,84.16
2019-05-13T02:28:54.134Z,83.85
2019-05-13T02:29:54.020Z,83.85
2019-05-13T02:30:56.150Z,84.27
2019-05-13T02:31:56.048Z,84.06
2019-05-13T02:32:53.202Z,84.16
2019-05-13T02:33:53.201Z,84.58
2019-05-13T02:34:53.376Z,84.06
2019-05-13T02:35:53.516Z,84.72
2019-05-13T02:36:52.871Z,83.64
2019-05-13T02:37:52.972Z,83.47
2019-05-13T02:38:53.256Z,83.47
2019-05-13T02:39:53.233Z,84.61
2019-05-13T02:40:53.290Z,83.99
2019-05-13T02:41:53.056Z,84.09
2019-05-13T02:42:52.713Z,84.61
2019-05-13T02:43:52.830Z,83.58
2019-05-13T02:44:53.147Z,84.61
2019-05-13T02:45:53.458Z,84.03
2019-05-13T02:46:52.732Z,84.55
2019-05-13T02:47:52.654Z,84.13
2019-05-13T02:48:52.946Z,84.13
2019-05-13T02:49:53.486Z,84.34
2019-05-13T02:50:53.471Z,84.44
2019-05-13T02:51:54.580Z,84.44
2019-05-13T02:52:53.214Z,84.13
2019-05-13T02:53:52.683Z,84.03
2019-05-13T02:54:52.988Z,84.23
2019-05-13T02:55:52.779Z,84.23
2019-05-13T02:56:52.843Z,84.03
2019-05-13T02:57:52.870Z,84.34
2019-05-13T02:58:52.751Z,84.65
2019-05-13T02:59:52.830Z,84.55
2019-05-13T03:00:53.827Z,84.34
2019-05-13T03:01:53.463Z,84.65
2019-05-13T03:02:52.534Z,84.55
2019-05-13T03:03:52.945Z,84.03
2019-05-13T03:04:52.679Z,84.23
2019-05-13T03:05:53.035Z,84.03
2019-05-13T03:06:52.413Z,84.03
2019-05-13T03:07:53.220Z,84.13
2019-05-13T03:08:54.488Z,84.03
2019-05-13T03:09:52.842Z,84.69
2019-05-13T03:10:53.430Z,83.62
2019-05-13T03:11:53.578Z,83.24
2019-05-13T03:12:53.455Z,83.14
2019-05-13T03:13:53.169Z,84.17
2019-05-13T03:14:53.273Z,83.93
2019-05-13T03:15:52.399Z,83.93
2019-05-13T03:16:52.746Z,84.17
2019-05-13T03:17:52.510Z,83.65
2019-05-13T03:18:52.531Z,83.55
2019-05-13T03:19:53.233Z,83.14
2019-05-13T03:20:53.063Z,82.82
2019-05-13T03:21:52.760Z,83.76
2019-05-13T03:22:52.902Z,83.97
2019-05-13T03:23:52.716Z,83.76
2019-05-13T03:24:52.606Z,83.24
2019-05-13T03:25:53.809Z,83.07
2019-05-13T03:26:53.239Z,83.28
2019-05-13T03:27:54.028Z,84.00
2019-05-13T03:28:52.533Z,84.73
2019-05-13T03:29:53.305Z,83.80
2019-05-13T03:30:56.331Z,84.73
2019-05-13T03:31:55.580Z,84.73
2019-05-13T03:33:00.497Z,84.46
2019-05-13T03:33:55.726Z,84.31
2019-05-13T03:34:55.816Z,84.31
2019-05-13T03:35:55.616Z,84.42
2019-05-13T03:36:56.870Z,84.52
2019-05-13T03:37:53.182Z,84.11
2019-05-13T03:39:05.175Z,83.69
2019-05-13T03:39:53.045Z,83.69
2019-05-13T03:40:52.718Z,83.90
2019-05-13T03:41:52.973Z,84.88
2019-05-13T03:42:53.484Z,84.31
2019-05-13T03:43:53.214Z,83.94
2019-05-13T03:44:52.623Z,84.46
2019-05-13T03:45:52.674Z,84.63
2019-05-13T03:46:52.945Z,84.63
2019-05-13T03:47:52.724Z,83.94
2019-05-13T03:48:52.935Z,83.63
2019-05-13T03:49:53.294Z,83.94
2019-05-13T03:50:53.365Z,83.63
2019-05-13T03:51:53.443Z,83.84
2019-05-13T03:52:52.598Z,84.15
2019-05-13T03:53:53.513Z,84.25
2019-05-13T03:54:52.195Z,84.15
2019-05-13T03:55:54.058Z,84.36
2019-05-13T03:56:53.102Z,84.25
2019-05-13T03:57:53.311Z,84.46
2019-05-13T03:58:53.683Z,84.25
2019-05-13T03:59:52.611Z,84.60
2019-05-13T04:00:52.002Z,84.60
2019-05-13T04:01:52.622Z,84.15
2019-05-13T04:02:52.262Z,84.29
2019-05-13T04:03:52.791Z,84.50
2019-05-13T04:04:53.048Z,84.50
2019-05-13T04:05:52.896Z,84.81
2019-05-13T04:06:53.104Z,84.60
2019-05-13T04:07:52.504Z,84.70
2019-05-13T04:08:53.975Z,85.12
2019-05-13T04:09:52.495Z,84.70
2019-05-13T04:10:52.555Z,84.77
2019-05-13T04:11:52.618Z,84.81
2019-05-13T04:12:52.675Z,84.70
2019-05-13T04:13:52.648Z,84.91
2019-05-13T04:14:52.777Z,85.22
2019-05-13T04:15:52.998Z,85.43
2019-05-13T04:16:53.153Z,85.43
2019-05-13T04:17:53.160Z,85.64
2019-05-13T04:18:53.645Z,85.02
2019-05-13T04:19:53.005Z,84.70
2019-05-13T04:20:53.020Z,84.50
2019-05-13T04:21:52.849Z,84.81
2019-05-13T04:22:52.996Z,84.60
2019-05-13T04:23:53.058Z,84.70
2019-05-13T04:24:53.030Z,84.70
2019-05-13T04:25:53.713Z,84.70
2019-05-13T04:26:53.273Z,84.77
2019-05-13T04:27:52.367Z,85.39
2019-05-13T04:28:52.615Z,85.29
2019-05-13T04:29:52.766Z,84.88
2019-05-13T04:30:52.529Z,85.19
2019-05-13T04:31:53.215Z,85.19
2019-05-13T04:32:53.471Z,85.39
2019-05-13T04:33:53.193Z,85.08
2019-05-13T04:34:52.939Z,85.19
2019-05-13T04:35:52.995Z,84.98
2019-05-13T04:36:52.120Z,84.36
2019-05-13T04:37:52.652Z,84.25
2019-05-13T04:38:52.868Z,84.67
2019-05-13T04:39:55.843Z,84.67
2019-05-13T04:40:53.019Z,85.29
2019-05-13T04:41:52.925Z,85.19
2019-05-13T04:42:53.535Z,85.60
2019-05-13T04:43:54.025Z,86.33
2019-05-13T04:44:53.242Z,85.81
2019-05-13T04:45:52.376Z,86.18
2019-05-13T04:46:52.284Z,85.60
2019-05-13T04:47:52.893Z,86.08
2019-05-13T04:48:53.067Z,86.39
2019-05-13T04:49:53.404Z,86.49
2019-05-13T04:50:53.370Z,86.39
2019-05-13T04:51:52.403Z,86.49
2019-05-13T04:52:52.517Z,86.25
2019-05-13T04:53:55.973Z,86.87
2019-05-13T04:54:52.900Z,86.76
2019-05-13T04:55:52.657Z,87.18
2019-05-13T04:56:52.480Z,87.38
2019-05-13T04:57:53.426Z,87.49
2019-05-13T04:58:52.882Z,88.28
2019-05-13T04:59:54.889Z,88.28
2019-05-13T05:01:02.343Z,87.97
2019-05-13T05:01:55.249Z,88.39
2019-05-13T05:02:55.142Z,87.97
2019-05-13T05:03:53.084Z,87.97
2019-05-13T05:04:52.463Z,87.97
2019-05-13T05:05:52.703Z,88.13
2019-05-13T05:06:52.654Z,88.24
2019-05-13T05:07:52.546Z,88.24
2019-05-13T05:08:52.539Z,88.34
2019-05-13T05:10:54.032Z,87.47
2019-05-13T05:11:52.939Z,86.81
2019-05-13T05:12:51.909Z,86.23
2019-05-13T05:13:53.100Z,86.09
2019-05-13T05:14:52.294Z,85.88
2019-05-13T05:15:52.225Z,85.78
2019-05-13T05:16:52.323Z,85.78
2019-05-13T05:17:52.135Z,85.68
2019-05-13T05:18:52.665Z,85.78
2019-05-13T05:19:52.491Z,85.42
2019-05-13T05:20:51.873Z,85.22
2019-05-13T05:21:52.764Z,85.22
2019-05-13T05:22:51.336Z,84.70
2019-05-13T05:23:51.509Z,84.70
2019-05-13T05:24:52.059Z,84.50
2019-05-13T05:25:52.156Z,84.29
2019-05-13T05:26:52.216Z,84.25
2019-05-13T05:27:51.477Z,83.63
2019-05-13T05:28:51.930Z,83.84
2019-05-13T05:29:51.654Z,83.94
2019-05-13T05:30:51.889Z,84.11
2019-05-13T05:31:51.969Z,84.21
2019-05-13T05:32:51.858Z,83.80
2019-05-13T05:33:51.637Z,82.87
2019-05-13T05:34:51.893Z,82.04
2019-05-13T05:35:52.017Z,82.04
2019-05-13T05:36:52.026Z,81.94
2019-05-13T05:37:52.206Z,81.52
2019-05-13T05:38:51.369Z,81.28
2019-05-13T05:39:51.236Z,81.73
2019-05-13T05:40:51.132Z,81.73
2019-05-13T05:41:51.418Z,81.84
2019-05-13T05:42:51.770Z,81.59
2019-05-13T05:43:52.248Z,81.70
2019-05-13T05:44:51.845Z,81.18
2019-05-13T05:45:51.246Z,81.35
2019-05-13T05:46:51.558Z,81.18
2019-05-13T05:47:51.166Z,81.49
2019-05-13T05:48:52.836Z,81.35
2019-05-13T05:49:51.601Z,81.56
2019-05-13T05:50:51.557Z,81.04
2019-05-13T05:51:51.474Z,80.93
2019-05-13T05:52:51.385Z,80.32
2019-05-13T05:53:51.692Z,79.38
2019-05-13T05:54:51.544Z,79.69
2019-05-13T05:55:51.793Z,79.69
2019-05-13T05:56:51.935Z,79.59
2019-05-13T05:57:52.221Z,79.59
2019-05-13T05:58:52.408Z,79.90
2019-05-13T05:59:51.693Z,79.66
2019-05-13T06:00:52.076Z,79.66
2019-05-13T06:01:52.573Z,79.35
2019-05-13T06:02:53.253Z,79.76
2019-05-13T06:03:52.011Z,79.62
2019-05-13T06:04:51.813Z,80.07
2019-05-13T06:05:51.238Z,79.93
2019-05-13T06:06:52.180Z,80.14
2019-05-13T06:07:51.429Z,79.72
2019-05-13T06:08:51.672Z,79.11
2019-05-13T06:09:51.606Z,78.38
2019-05-13T06:10:53.644Z,78.34
2019-05-13T06:11:52.178Z,78.59
2019-05-13T06:12:52.290Z,77.94
2019-05-13T06:13:54.368Z,77.01
2019-05-13T06:14:52.391Z,75.56
2019-05-13T06:15:51.378Z,74.63
2019-05-13T06:16:51.902Z,74.80
2019-05-13T06:17:51.773Z,75.67
2019-05-13T06:18:52.238Z,74.95
2019-05-13T06:19:51.258Z,75.43
2019-05-13T06:20:51.261Z,75.22
2019-05-13T06:21:51.311Z,74.29
2019-05-13T06:22:51.528Z,75.29
2019-05-13T06:23:51.843Z,75.18
2019-05-13T06:24:52.191Z,75.39
2019-05-13T06:25:52.726Z,74.67
2019-05-13T06:26:52.065Z,74.88
2019-05-13T06:27:51.213Z,75.18
2019-05-13T06:28:52.062Z,73.85
2019-05-13T06:29:52.618Z,73.13
2019-05-13T06:30:51.978Z,74.26
2019-05-13T06:31:51.959Z,74.22
2019-05-13T06:32:52.339Z,72.51
2019-05-13T06:33:51.433Z,71.27
2019-05-13T06:34:52.435Z,70.42
2019-05-13T06:35:52.136Z,70.72
2019-05-13T06:36:52.140Z,71.14
2019-05-13T06:37:52.021Z,70.72
2019-05-13T06:38:51.335Z,70.72
2019-05-13T06:39:51.251Z,70.83
2019-05-13T06:41:00.403Z,70.93
2019-05-13T06:41:51.795Z,70.00
2019-05-13T06:42:52.133Z,70.31
2019-05-13T06:43:52.232Z,70.52
2019-05-13T06:44:51.401Z,71.03
2019-05-13T06:45:51.365Z,71.03
2019-05-13T06:46:51.715Z,71.10
2019-05-13T06:47:52.154Z,71.51
2019-05-13T06:48:51.914Z,71.41
2019-05-13T06:49:51.606Z,70.07
2019-05-13T06:50:51.947Z,70.59
2019-05-13T06:51:52.402Z,70.59
2019-05-13T06:52:51.631Z,70.79
2019-05-13T06:53:51.724Z,70.69
2019-05-13T06:54:51.994Z,71.00
2019-05-13T06:55:52.139Z,71.31
2019-05-13T06:56:51.757Z,71.31
2019-05-13T06:57:51.755Z,70.59
2019-05-13T06:58:52.026Z,70.79
2019-05-13T06:59:52.033Z,70.97
2019-05-13T07:00:51.654Z,70.56
2019-05-13T07:01:51.392Z,69.53
2019-05-13T07:02:51.712Z,70.04
2019-05-13T07:03:51.719Z,70.25
2019-05-13T07:04:51.692Z,70.21
2019-05-13T07:05:52.283Z,69.84
2019-05-13T07:06:56.043Z,69.80
2019-05-13T07:07:51.312Z,69.80
2019-05-13T07:08:51.969Z,69.29
2019-05-13T07:09:51.763Z,68.40
2019-05-13T07:10:51.556Z,68.40
2019-05-13T07:11:51.677Z,67.88
2019-05-13T07:12:51.827Z,67.26
2019-05-13T07:13:51.667Z,68.40
2019-05-13T07:14:51.812Z,68.40
2019-05-13T07:15:51.963Z,68.60
2019-05-13T07:16:49.605Z,68.40
2019-05-13T07:17:51.966Z,67.71
2019-05-13T07:18:52.068Z,68.70
2019-05-13T07:19:51.682Z,67.98
2019-05-13T07:20:49.554Z,68.70
2019-05-13T07:21:51.950Z,69.60
2019-05-13T07:22:51.896Z,68.98
2019-05-13T07:23:54.490Z,68.05
2019-05-13T07:24:51.985Z,67.23
2019-05-13T07:25:52.252Z,67.03
2019-05-13T07:26:49.488Z,67.44
2019-05-13T07:27:51.543Z,68.16
2019-05-13T07:28:51.956Z,68.57
2019-05-13T07:29:51.501Z,68.46
2019-05-13T07:30:51.528Z,68.13
2019-05-13T07:31:52.052Z,68.02
2019-05-13T07:32:49.419Z,67.61
2019-05-13T07:33:51.565Z,67.00
2019-05-13T07:34:52.840Z,68.02
2019-05-13T07:35:49.393Z,68.43
2019-05-13T07:36:51.302Z,67.82
2019-05-13T07:37:51.626Z,67.79
2019-05-13T07:38:51.943Z,67.38
2019-05-13T07:39:49.365Z,67.79
2019-05-13T07:40:51.991Z,67.68
2019-05-13T07:41:49.317Z,67.89
2019-05-13T07:42:49.316Z,67.79
2019-05-13T07:43:51.597Z,67.89
2019-05-13T07:44:49.311Z,67.35
2019-05-13T07:45:51.367Z,68.06
2019-05-13T07:46:52.090Z,67.35
2019-05-13T07:47:49.257Z,66.73
2019-05-13T07:48:51.897Z,66.31
2019-05-13T07:49:51.596Z,65.39
2019-05-13T07:50:56.310Z,65.70
2019-05-13T07:51:52.063Z,65.80
2019-05-13T07:52:51.513Z,66.01
2019-05-13T07:53:51.610Z,65.32
2019-05-13T07:54:49.198Z,66.01
2019-05-13T07:55:49.161Z,65.70
2019-05-13T07:56:49.152Z,64.47
2019-05-13T07:57:51.392Z,64.67
2019-05-13T07:58:49.146Z,64.47
2019-05-13T07:59:49.152Z,63.96
2019-05-13T08:00:49.103Z,64.37
2019-05-13T08:01:49.104Z,64.16
2019-05-13T08:02:49.083Z,63.54
2019-05-13T08:03:51.441Z,64.06
2019-05-13T08:04:49.670Z,64.13
2019-05-13T08:05:51.197Z,64.44
2019-05-13T08:06:49.036Z,65.36
2019-05-13T08:07:51.412Z,64.34
2019-05-13T08:08:49.037Z,63.62
2019-05-13T08:09:51.363Z,63.93
2019-05-13T08:10:49.001Z,63.18
2019-05-13T08:12:02.340Z,63.31
2019-05-13T08:12:51.667Z,64.10
2019-05-13T08:13:51.511Z,64.00
2019-05-13T08:14:48.954Z,63.66
2019-05-13T08:15:48.959Z,63.39
2019-05-13T08:16:48.933Z,62.84
2019-05-13T08:17:48.913Z,60.79
2019-05-13T08:18:48.904Z,61.20
2019-05-13T08:19:48.892Z,62.12
2019-05-13T08:20:48.906Z,62.43
2019-05-13T08:21:51.220Z,63.15
2019-05-13T08:22:48.855Z,63.66
2019-05-13T08:23:48.843Z,63.05
2019-05-13T08:24:51.866Z,63.02
2019-05-13T08:25:51.444Z,63.22
2019-05-13T08:26:50.704Z,63.02
2019-05-13T08:27:50.945Z,63.12
2019-05-13T08:29:00.334Z,62.61
2019-05-13T08:29:51.990Z,63.40
2019-05-13T08:30:48.801Z,63.50
2019-05-13T08:31:48.754Z,62.58
2019-05-13T08:32:48.749Z,61.35
2019-05-13T08:33:48.731Z,61.04
2019-05-13T08:34:52.566Z,61.04
2019-05-13T08:35:53.877Z,60.94
2019-05-13T08:36:51.412Z,60.63
2019-05-13T08:37:48.688Z,59.61
2019-05-13T08:38:51.733Z,60.84
2019-05-13T08:39:48.670Z,59.61
2019-05-13T08:40:48.745Z,60.22
2019-05-13T08:41:48.641Z,61.15
2019-05-13T08:42:48.632Z,60.84
2019-05-13T08:43:48.617Z,59.50
2019-05-13T08:44:48.606Z,59.71
2019-05-13T08:45:51.187Z,60.63
2019-05-13T08:46:48.593Z,60.63
2019-05-13T08:47:51.109Z,61.66
2019-05-13T08:48:48.561Z,61.52
2019-05-13T08:49:48.551Z,61.01
2019-05-13T08:50:48.541Z,61.32
2019-05-13T08:51:48.556Z,60.50
2019-05-13T08:52:48.527Z,58.86
2019-05-13T08:53:48.505Z,59.48
2019-05-13T08:54:48.495Z,60.06
2019-05-13T08:55:48.482Z,58.53
2019-05-13T08:56:48.494Z,58.63
2019-05-13T08:57:48.459Z,58.22
2019-05-13T08:58:48.468Z,58.02
2019-05-13T08:59:48.438Z,58.22
2019-05-13T09:00:48.434Z,58.81
2019-05-13T09:01:48.438Z,57.99
2019-05-13T09:02:48.403Z,57.79
2019-05-13T09:03:48.397Z,58.07
2019-05-13T09:04:48.384Z,56.33
2019-05-13T09:05:48.381Z,57.66
2019-05-13T09:06:48.385Z,54.77
2019-05-13T09:07:48.347Z,53.75
2019-05-13T09:08:48.335Z,53.44
2019-05-13T09:09:48.322Z,53.64
2019-05-13T09:10:48.319Z,52.62
2019-05-13T09:11:48.341Z,52.42
2019-05-13T09:12:48.300Z,53.23
2019-05-13T09:13:48.278Z,53.26
2019-05-13T09:14:48.266Z,54.26
2019-05-13T09:15:48.257Z,54.36
2019-05-13T09:16:48.290Z,53.23
2019-05-13T09:17:48.252Z,53.64
2019-05-13T09:18:48.240Z,54.26
2019-05-13T09:19:48.212Z,54.36
2019-05-13T09:20:48.201Z,54.13
2019-05-13T09:21:48.188Z,54.33
2019-05-13T09:22:48.206Z,55.56
2019-05-13T09:23:48.165Z,55.46
2019-05-13T09:24:48.168Z,55.94
2019-05-13T09:25:48.142Z,55.66
2019-05-13T09:26:48.131Z,53.62
2019-05-13T09:27:48.147Z,53.92
2019-05-13T09:28:48.108Z,54.21
2019-05-13T09:29:48.099Z,52.47
2019-05-13T09:30:48.101Z,54.41
2019-05-13T09:31:48.077Z,52.98
2019-05-13T09:32:48.088Z,52.06
2019-05-13T09:33:48.053Z,52.55
2019-05-13T09:34:48.041Z,53.59
2019-05-13T09:35:50.200Z,52.55
2019-05-13T09:36:48.030Z,53.57
2019-05-13T09:37:48.033Z,52.53
2019-05-13T09:38:48.020Z,51.91
2019-05-13T09:39:47.985Z,52.32
2019-05-13T09:40:47.974Z,52.01
2019-05-13T09:41:47.962Z,51.48
2019-05-13T09:42:51.861Z,51.76
2019-05-13T09:43:51.223Z,51.46
2019-05-13T09:44:47.980Z,51.68
2019-05-13T09:45:47.920Z,52.17
2019-05-13T09:46:47.905Z,52.68
2019-05-13T09:47:47.926Z,51.56
2019-05-13T09:48:47.883Z,51.86
2019-05-13T09:49:47.878Z,51.66
2019-05-13T09:50:47.860Z,51.94
2019-05-13T09:51:47.864Z,52.15
2019-05-13T09:52:47.864Z,50.92
2019-05-13T09:53:47.827Z,50.59
2019-05-13T09:54:47.817Z,49.68
2019-05-13T09:55:47.803Z,49.17
2019-05-13T09:56:47.792Z,49.70
2019-05-13T09:57:47.805Z,50.11
2019-05-13T09:58:47.768Z,49.48
2019-05-13T09:59:47.760Z,49.17
2019-05-13T10:00:47.749Z,49.27
2019-05-13T10:01:47.737Z,49.68
2019-05-13T10:02:47.750Z,48.86
2019-05-13T10:03:54.805Z,48.46
2019-05-13T10:04:51.244Z,49.04
2019-05-13T10:05:47.690Z,49.55
2019-05-13T10:06:47.683Z,48.74
2019-05-13T10:07:47.670Z,46.81
2019-05-13T10:08:47.683Z,47.60
2019-05-13T10:09:48.449Z,48.82
2019-05-13T10:10:47.646Z,48.21
2019-05-13T10:11:47.624Z,48.61
2019-05-13T10:13:07.362Z,45.44
2019-05-13T10:13:48.624Z,45.03
2019-05-13T10:14:47.590Z,43.51
2019-05-13T10:15:48.871Z,44.51
2019-05-13T10:16:47.566Z,44.51
2019-05-13T10:17:47.556Z,42.07
2019-05-13T10:18:47.569Z,42.68
2019-05-13T10:19:47.531Z,43.79
2019-05-13T10:20:47.628Z,44.48
2019-05-13T10:21:47.507Z,44.36
2019-05-13T10:22:47.498Z,45.48
2019-05-13T10:23:47.492Z,42.94
2019-05-13T10:24:47.499Z,41.40
2019-05-13T10:25:47.466Z,40.91
2019-05-13T10:26:47.454Z,38.68
2019-05-13T10:27:47.441Z,39.47
2019-05-13T10:28:47.429Z,40.38
2019-05-13T10:29:47.445Z,39.57
2019-05-13T10:30:47.404Z,42.51
2019-05-13T10:31:47.394Z,41.38
2019-05-13T10:32:47.383Z,38.64
2019-05-13T10:33:47.390Z,38.13
2019-05-13T10:34:47.386Z,38.82
2019-05-13T10:35:47.402Z,36.91
2019-05-13T10:36:47.337Z,33.65
2019-05-13T10:37:47.331Z,30.09
2019-05-13T10:38:47.317Z,30.89
2019-05-13T10:39:47.334Z,33.22
2019-05-13T10:40:47.292Z,29.47
2019-05-13T10:41:47.282Z,27.65
2019-05-13T10:42:47.270Z,29.66
2019-05-13T10:43:47.260Z,30.77
2019-05-13T10:44:47.281Z,30.36
2019-05-13T10:45:47.235Z,30.77
2019-05-13T10:46:47.225Z,31.16
2019-05-13T10:47:47.212Z,32.07
2019-05-13T10:48:47.201Z,30.13
2019-05-13T10:49:47.225Z,30.55
2019-05-13T10:50:47.179Z,31.54
2019-05-13T10:51:47.169Z,30.13
2019-05-13T10:52:47.157Z,32.04
2019-05-13T10:53:47.153Z,30.11
2019-05-13T10:54:47.150Z,31.52
2019-05-13T10:55:47.149Z,31.22
2019-05-13T10:56:47.115Z,30.51
2019-05-13T10:57:47.100Z,30.80
2019-05-13T10:58:47.092Z,33.43
2019-05-13T10:59:47.101Z,31.51
2019-05-13T11:00:47.066Z,31.19
2019-05-13T11:01:47.054Z,31.49
2019-05-13T11:02:47.060Z,32.39
2019-05-13T11:03:47.032Z,32.79
2019-05-13T11:04:47.027Z,30.27
2019-05-13T11:05:47.037Z,32.27
2019-05-13T11:06:46.998Z,32.07
2019-05-13T11:07:46.986Z,31.46
2019-05-13T11:08:46.986Z,29.86
2019-05-13T11:09:46.966Z,28.45
2019-05-13T11:10:46.981Z,30.86
2019-05-13T11:11:46.943Z,30.84
2019-05-13T11:12:46.931Z,30.54
2019-05-13T11:13:55.133Z,30.74
2019-05-13T11:14:51.492Z,31.75
2019-05-13T11:15:47.922Z,30.32
2019-05-13T11:16:46.893Z,29.82
2019-05-13T11:17:46.874Z,29.02
2019-05-13T11:18:46.865Z,28.11
2019-05-13T11:19:46.852Z,29.11
2019-05-13T11:20:46.871Z,27.61
2019-05-13T11:21:50.586Z,27.81
2019-05-13T11:22:46.818Z,27.50
2019-05-13T11:23:46.808Z,27.81
2019-05-13T11:24:46.795Z,27.70
2019-05-13T11:25:46.813Z,27.91
2019-05-13T11:26:46.783Z,29.22
2019-05-13T11:27:46.762Z,29.00
2019-05-13T11:28:46.749Z,29.91
2019-05-13T11:29:46.741Z,28.09
2019-05-13T11:30:46.753Z,28.49
2019-05-13T11:31:46.718Z,28.50
2019-05-13T11:32:46.706Z,28.80
2019-05-13T11:33:46.700Z,28.40
2019-05-13T11:34:46.685Z,27.80
2019-05-13T11:35:46.705Z,28.90
2019-05-13T11:36:46.662Z,28.49
2019-05-13T11:37:46.651Z,27.58
2019-05-13T11:38:46.638Z,27.80
2019-05-13T11:39:46.624Z,27.91
2019-05-13T11:40:46.640Z,26.50
2019-05-13T11:41:46.606Z,27.72
2019-05-13T11:42:46.597Z,27.61
2019-05-13T11:43:46.706Z,25.99
2019-05-13T11:44:46.712Z,27.50
2019-05-13T11:45:46.583Z,27.20
2019-05-13T11:46:46.558Z,26.80
2019-05-13T11:47:46.537Z,25.79
2019-05-13T11:48:46.526Z,27.50
2019-05-13T11:49:46.515Z,26.60
2019-05-13T11:50:50.269Z,28.01
2019-05-13T11:51:47.513Z,26.09
2019-05-13T11:52:46.498Z,28.41
2019-05-13T11:53:46.471Z,27.50
2019-05-13T11:54:46.458Z,25.89
2019-05-13T11:55:46.474Z,28.50
2019-05-13T11:56:50.561Z,27.89
2019-05-13T11:57:47.425Z,28.08
2019-05-13T11:58:46.414Z,26.97
2019-05-13T11:59:46.404Z,28.08
2019-05-13T12:00:46.389Z,27.88
2019-05-13T12:01:46.430Z,28.58
2019-05-13T12:02:50.965Z,29.17
2019-05-13T12:03:47.356Z,28.37
2019-05-13T12:04:46.348Z,27.56
2019-05-13T12:05:46.338Z,25.87
2019-05-13T12:06:49.245Z,25.57
2019-05-13T12:07:47.312Z,26.67
2019-05-13T12:08:51.048Z,27.49
2019-05-13T12:09:47.288Z,28.69
2019-05-13T12:10:46.277Z,27.78
2019-05-13T12:11:46.292Z,28.17
2019-05-13T12:12:46.275Z,27.56
2019-05-13T12:13:46.276Z,27.87
2019-05-13T12:15:18.060Z,26.35
2019-05-13T12:15:49.899Z,26.96
2019-05-13T12:16:46.227Z,23.74
2019-05-13T12:17:46.223Z,26.75
2019-05-13T12:18:46.198Z,25.05
2019-05-13T12:19:46.180Z,24.66
2019-05-13T12:20:46.167Z,26.28
2019-05-13T12:21:47.022Z,26.79
2019-05-13T12:22:46.168Z,26.79
2019-05-13T12:23:46.134Z,27.08
2019-05-13T12:24:46.130Z,25.87
2019-05-13T12:25:46.111Z,27.59
2019-05-13T12:26:46.099Z,27.68
2019-05-13T12:27:46.117Z,27.98
2019-05-13T12:28:46.076Z,26.27
2019-05-13T12:29:46.064Z,27.08
2019-05-13T12:30:46.059Z,27.26
2019-05-13T12:31:46.042Z,28.07
2019-05-13T12:32:46.056Z,25.54
2019-05-13T12:33:46.021Z,26.95
2019-05-13T12:34:46.228Z,26.04
2019-05-13T12:35:46.002Z,25.56
2019-05-13T12:36:45.985Z,25.35
2019-05-13T12:37:46.043Z,24.55
2019-05-13T12:38:45.970Z,26.45
2019-05-13T12:39:45.951Z,27.26
2019-05-13T12:40:45.943Z,25.25
2019-05-13T12:41:45.945Z,26.07
2019-05-13T12:42:47.263Z,26.06
2019-05-13T12:43:45.910Z,26.86
2019-05-13T12:45:00.624Z,26.96
2019-05-13T12:45:46.883Z,25.34
2019-05-13T12:46:50.146Z,26.04
2019-05-13T12:47:46.913Z,24.63
2019-05-13T12:48:45.858Z,24.35
2019-05-13T12:49:45.841Z,24.55
2019-05-13T12:50:45.859Z,26.17
2019-05-13T12:51:45.820Z,23.75
2019-05-13T12:52:45.830Z,25.95
2019-05-13T12:53:45.796Z,24.95